Terminal Aerodrome Forecast
Issued by NWS

Home | Current Version | Previous Version | Text Only | Print | Product List | Glossary On
Versions: 1 2 3 4 5 6 7 8 9 10 11 12 13 14 15 16
000
FTUS45 KTFX 211142
TAFLWT
TAF
KLWT 211142Z 2112/2212 21012KT P6SM VCSH OVC090
      TEMPO 2114/2116 3SM -SHSN SCT005 OVC030
     FM211800 27020G30KT P6SM OVC090
     FM220900 28010KT 3SM -SHSN SCT005 BKN025=

USA.gov is the U.S. government's official web portal to all federal, state and local government web resources and services.